sensor_id;sensor_type;location;lat;lon;timestamp;pressure;altitude;pressure_sealevel;temperature;humidity
59154;BME280;44935;48.944;9.418;2024-02-16T00:01:08;98527.66;;;11.48;47.16
59154;BME280;44935;48.944;9.418;2024-02-16T00:03:35;98535.62;;;11.08;47.85
59154;BME280;44935;48.944;9.418;2024-02-16T00:06:02;98533.92;;;11.57;47.90
59154;BME280;44935;48.944;9.418;2024-02-16T00:08:29;98532.30;;;11.38;47.65
59154;BME280;44935;48.944;9.418;2024-02-16T00:10:56;98535.33;;;11.41;47.87
59154;BME280;44935;48.944;9.418;2024-02-16T00:13:23;98529.94;;;11.50;47.42
59154;BME280;44935;48.944;9.418;2024-02-16T00:15:49;98531.97;;;11.54;47.16
59154;BME280;44935;48.944;9.418;2024-02-16T00:18:16;98530.34;;;11.63;47.20
59154;BME280;44935;48.944;9.418;2024-02-16T00:20:43;98525.41;;;12.09;46.58
59154;BME280;44935;48.944;9.418;2024-02-16T00:23:10;98528.71;;;12.18;45.61
59154;BME280;44935;48.944;9.418;2024-02-16T00:25:37;98526.86;;;12.61;44.64
59154;BME280;44935;48.944;9.418;2024-02-16T00:28:04;98524.96;;;13.20;44.00
59154;BME280;44935;48.944;9.418;2024-02-16T00:30:31;98523.96;;;13.20;43.48
59154;BME280;44935;48.944;9.418;2024-02-16T00:32:58;98521.55;;;13.59;43.35
59154;BME280;44935;48.944;9.418;2024-02-16T00:35:25;98524.06;;;13.56;43.08
59154;BME280;44935;48.944;9.418;2024-02-16T00:37:52;98523.44;;;12.91;43.96
59154;BME280;44935;48.944;9.418;2024-02-16T00:40:19;98519.75;;;12.83;44.03
59154;BME280;44935;48.944;9.418;2024-02-16T00:42:46;98515.70;;;13.26;43.40
59154;BME280;44935;48.944;9.418;2024-02-16T00:45:13;98519.58;;;13.05;44.12
59154;BME280;44935;48.944;9.418;2024-02-16T00:47:40;98518.11;;;13.70;43.86
59154;BME280;44935;48.944;9.418;2024-02-16T00:50:08;98516.50;;;12.37;45.19
59154;BME280;44935;48.944;9.418;2024-02-16T00:52:35;98522.34;;;12.31;45.93
59154;BME280;44935;48.944;9.418;2024-02-16T00:55:02;98516.41;;;12.14;46.19
59154;BME280;44935;48.944;9.418;2024-02-16T00:57:29;98514.00;;;11.82;46.29
59154;BME280;44935;48.944;9.418;2024-02-16T00:59:56;98515.09;;;12.04;45.66
59154;BME280;44935;48.944;9.418;2024-02-16T01:02:23;98517.32;;;12.18;45.79
59154;BME280;44935;48.944;9.418;2024-02-16T01:04:50;98519.74;;;11.83;45.96
59154;BME280;44935;48.944;9.418;2024-02-16T01:07:17;98517.26;;;12.19;45.57
59154;BME280;44935;48.944;9.418;2024-02-16T01:09:44;98514.87;;;12.36;46.08
59154;BME280;44935;48.944;9.418;2024-02-16T01:12:10;98515.30;;;12.26;45.49
59154;BME280;44935;48.944;9.418;2024-02-16T01:14:37;98517.89;;;12.32;45.97
59154;BME280;44935;48.944;9.418;2024-02-16T01:17:04;98518.38;;;12.11;45.88
59154;BME280;44935;48.944;9.418;2024-02-16T01:19:31;98516.63;;;11.40;46.52
59154;BME280;44935;48.944;9.418;2024-02-16T01:21:58;98515.43;;;8.82;52.58
59154;BME280;44935;48.944;9.418;2024-02-16T01:24:25;98507.27;;;6.38;57.98
59154;BME280;44935;48.944;9.418;2024-02-16T01:26:52;98505.71;;;8.24;55.99
59154;BME280;44935;48.944;9.418;2024-02-16T01:29:19;98520.81;;;10.33;50.84
59154;BME280;44935;48.944;9.418;2024-02-16T01:31:45;98524.93;;;11.25;49.44
59154;BME280;44935;48.944;9.418;2024-02-16T01:34:12;98514.72;;;10.00;50.97
59154;BME280;44935;48.944;9.418;2024-02-16T01:36:39;98512.31;;;11.64;47.36
59154;BME280;44935;48.944;9.418;2024-02-16T01:39:06;98513.42;;;12.47;46.19
59154;BME280;44935;48.944;9.418;2024-02-16T01:41:34;98511.92;;;12.25;46.70
59154;BME280;44935;48.944;9.418;2024-02-16T01:44:00;98517.39;;;12.72;45.28
59154;BME280;44935;48.944;9.418;2024-02-16T01:46:27;98519.21;;;13.09;44.47
59154;BME280;44935;48.944;9.418;2024-02-16T01:48:54;98522.25;;;12.70;44.92
59154;BME280;44935;48.944;9.418;2024-02-16T01:51:23;98518.22;;;12.28;45.45
59154;BME280;44935;48.944;9.418;2024-02-16T01:53:52;98516.53;;;12.85;45.36
59154;BME280;44935;48.944;9.418;2024-02-16T01:56:19;98515.88;;;11.26;47.83
59154;BME280;44935;48.944;9.418;2024-02-16T01:58:46;98510.00;;;8.74;52.62
59154;BME280;44935;48.944;9.418;2024-02-16T02:01:14;98511.64;;;11.11;48.44
59154;BME280;44935;48.944;9.418;2024-02-16T02:03:41;98514.96;;;12.46;46.35
59154;BME280;44935;48.944;9.418;2024-02-16T02:06:08;98512.93;;;11.93;47.12
59154;BME280;44935;48.944;9.418;2024-02-16T02:08:34;98514.02;;;12.46;45.68
59154;BME280;44935;48.944;9.418;2024-02-16T02:11:01;98516.45;;;12.60;44.83
59154;BME280;44935;48.944;9.418;2024-02-16T02:13:28;98521.21;;;12.77;45.40
59154;BME280;44935;48.944;9.418;2024-02-16T02:15:56;98512.78;;;12.99;44.79
59154;BME280;44935;48.944;9.418;2024-02-16T02:18:24;98507.24;;;12.71;44.70
59154;BME280;44935;48.944;9.418;2024-02-16T02:20:51;98498.78;;;12.97;44.64
59154;BME280;44935;48.944;9.418;2024-02-16T02:23:18;98492.52;;;11.04;47.34
59154;BME280;44935;48.944;9.418;2024-02-16T02:25:45;98495.32;;;12.67;45.16
59154;BME280;44935;48.944;9.418;2024-02-16T02:28:12;98490.20;;;12.69;44.95
59154;BME280;44935;48.944;9.418;2024-02-16T02:30:39;98489.43;;;13.39;44.06
59154;BME280;44935;48.944;9.418;2024-02-16T02:33:06;98487.22;;;11.54;46.51
59154;BME280;44935;48.944;9.418;2024-02-16T02:35:32;98488.30;;;11.74;47.19
59154;BME280;44935;48.944;9.418;2024-02-16T02:37:59;98486.17;;;12.56;45.47
59154;BME280;44935;48.944;9.418;2024-02-16T02:40:26;98479.35;;;10.47;48.62
59154;BME280;44935;48.944;9.418;2024-02-16T02:42:53;98472.11;;;10.74;48.66
59154;BME280;44935;48.944;9.418;2024-02-16T02:45:20;98468.94;;;11.22;48.24
59154;BME280;44935;48.944;9.418;2024-02-16T02:47:47;98465.59;;;11.73;47.09
59154;BME280;44935;48.944;9.418;2024-02-16T02:50:14;98469.10;;;11.09;47.86
59154;BME280;44935;48.944;9.418;2024-02-16T02:52:40;98469.83;;;11.69;46.42
59154;BME280;44935;48.944;9.418;2024-02-16T02:55:08;98471.99;;;12.23;46.02
59154;BME280;44935;48.944;9.418;2024-02-16T02:57:35;98469.54;;;10.19;49.33
59154;BME280;44935;48.944;9.418;2024-02-16T03:00:03;98459.20;;;10.93;48.69
59154;BME280;44935;48.944;9.418;2024-02-16T03:02:31;98459.25;;;12.93;45.85
59154;BME280;44935;48.944;9.418;2024-02-16T03:04:57;98455.09;;;11.60;47.04
59154;BME280;44935;48.944;9.418;2024-02-16T03:07:25;98460.05;;;12.68;45.13
59154;BME280;44935;48.944;9.418;2024-02-16T03:09:52;98457.31;;;12.78;44.54
59154;BME280;44935;48.944;9.418;2024-02-16T03:12:19;98453.69;;;13.20;44.12
59154;BME280;44935;48.944;9.418;2024-02-16T03:14:46;98457.73;;;13.72;43.38
59154;BME280;44935;48.944;9.418;2024-02-16T03:17:13;98461.92;;;13.99;42.98
59154;BME280;44935;48.944;9.418;2024-02-16T03:19:39;98460.37;;;13.14;43.85
59154;BME280;44935;48.944;9.418;2024-02-16T03:22:07;98459.21;;;13.67;43.73
59154;BME280;44935;48.944;9.418;2024-02-16T03:24:34;98460.64;;;13.28;44.30
59154;BME280;44935;48.944;9.418;2024-02-16T03:27:01;98462.10;;;13.19;44.37
59154;BME280;44935;48.944;9.418;2024-02-16T03:29:28;98459.20;;;12.81;44.98
59154;BME280;44935;48.944;9.418;2024-02-16T03:31:55;98461.02;;;11.69;46.74
59154;BME280;44935;48.944;9.418;2024-02-16T03:34:22;98463.41;;;10.10;50.28
59154;BME280;44935;48.944;9.418;2024-02-16T03:36:48;98465.87;;;9.97;49.94
59154;BME280;44935;48.944;9.418;2024-02-16T03:39:15;98462.90;;;10.53;49.53
59154;BME280;44935;48.944;9.418;2024-02-16T03:41:42;98463.03;;;12.67;45.62
59154;BME280;44935;48.944;9.418;2024-02-16T03:44:09;98464.05;;;13.02;44.58
59154;BME280;44935;48.944;9.418;2024-02-16T03:46:36;98466.63;;;11.39;47.40
59154;BME280;44935;48.944;9.418;2024-02-16T03:49:03;98468.42;;;12.27;46.37
59154;BME280;44935;48.944;9.418;2024-02-16T03:51:30;98475.12;;;12.76;45.35
59154;BME280;44935;48.944;9.418;2024-02-16T03:53:57;98484.26;;;12.62;45.50
59154;BME280;44935;48.944;9.418;2024-02-16T03:56:23;98483.56;;;12.88;45.09
59154;BME280;44935;48.944;9.418;2024-02-16T03:58:50;98482.70;;;12.21;45.84
59154;BME280;44935;48.944;9.418;2024-02-16T04:01:17;98488.55;;;13.09;44.05
59154;BME280;44935;48.944;9.418;2024-02-16T04:03:44;98498.50;;;12.88;44.82
59154;BME280;44935;48.944;9.418;2024-02-16T04:06:11;98495.61;;;11.61;46.83
59154;BME280;44935;48.944;9.418;2024-02-16T04:08:38;98493.71;;;10.40;48.66
59154;BME280;44935;48.944;9.418;2024-02-16T04:11:05;98495.11;;;10.57;49.93
59154;BME280;44935;48.944;9.418;2024-02-16T04:13:31;98492.80;;;11.88;46.80
59154;BME280;44935;48.944;9.418;2024-02-16T04:15:59;98489.48;;;11.32;47.95
59154;BME280;44935;48.944;9.418;2024-02-16T04:18:26;98485.07;;;11.57;47.95
59154;BME280;44935;48.944;9.418;2024-02-16T04:20:52;98488.18;;;12.52;46.42
59154;BME280;44935;48.944;9.418;2024-02-16T04:23:20;98488.43;;;12.31;45.82
59154;BME280;44935;48.944;9.418;2024-02-16T04:25:47;98482.43;;;12.57;45.55
59154;BME280;44935;48.944;9.418;2024-02-16T04:28:14;98482.52;;;12.83;44.96
59154;BME280;44935;48.944;9.418;2024-02-16T04:30:41;98483.32;;;12.36;45.89
59154;BME280;44935;48.944;9.418;2024-02-16T04:33:07;98483.38;;;12.91;44.32
59154;BME280;44935;48.944;9.418;2024-02-16T04:35:34;98485.12;;;12.90;44.40
59154;BME280;44935;48.944;9.418;2024-02-16T04:38:01;98489.68;;;10.18;48.89
59154;BME280;44935;48.944;9.418;2024-02-16T04:40:28;98495.02;;;9.82;51.04
59154;BME280;44935;48.944;9.418;2024-02-16T04:43:00;98492.23;;;11.85;47.97
59154;BME280;44935;48.944;9.418;2024-02-16T04:45:27;98491.62;;;11.44;47.09
59154;BME280;44935;48.944;9.418;2024-02-16T04:47:54;98493.95;;;10.07;51.01
59154;BME280;44935;48.944;9.418;2024-02-16T04:50:21;98494.22;;;11.78;47.30
59154;BME280;44935;48.944;9.418;2024-02-16T04:52:48;98496.16;;;12.02;46.45
59154;BME280;44935;48.944;9.418;2024-02-16T04:55:15;98499.74;;;10.67;49.51
59154;BME280;44935;48.944;9.418;2024-02-16T04:57:42;98498.35;;;11.55;47.58
59154;BME280;44935;48.944;9.418;2024-02-16T05:00:10;98498.63;;;12.44;45.85
59154;BME280;44935;48.944;9.418;2024-02-16T05:02:37;98498.92;;;11.34;48.07
59154;BME280;44935;48.944;9.418;2024-02-16T05:05:04;98504.28;;;12.69;45.36
59154;BME280;44935;48.944;9.418;2024-02-16T05:07:32;98508.48;;;12.73;45.46
59154;BME280;44935;48.944;9.418;2024-02-16T05:10:00;98503.46;;;13.01;45.09
59154;BME280;44935;48.944;9.418;2024-02-16T05:12:26;98502.53;;;10.98;48.13
59154;BME280;44935;48.944;9.418;2024-02-16T05:14:53;98505.37;;;12.41;45.94
59154;BME280;44935;48.944;9.418;2024-02-16T05:17:20;98503.13;;;11.84;46.57
59154;BME280;44935;48.944;9.418;2024-02-16T05:19:47;98499.80;;;11.35;48.21
59154;BME280;44935;48.944;9.418;2024-02-16T05:22:15;98507.62;;;9.37;51.24
59154;BME280;44935;48.944;9.418;2024-02-16T05:24:42;98501.36;;;11.13;48.05
59154;BME280;44935;48.944;9.418;2024-02-16T05:27:09;98512.05;;;10.67;50.81
59154;BME280;44935;48.944;9.418;2024-02-16T05:29:36;98513.54;;;12.35;46.33
59154;BME280;44935;48.944;9.418;2024-02-16T05:32:04;98511.48;;;8.74;53.21
59154;BME280;44935;48.944;9.418;2024-02-16T05:34:31;98515.96;;;10.91;49.93
59154;BME280;44935;48.944;9.418;2024-02-16T05:36:58;98514.11;;;12.26;47.27
59154;BME280;44935;48.944;9.418;2024-02-16T05:39:25;98514.34;;;10.25;50.48
59154;BME280;44935;48.944;9.418;2024-02-16T05:41:52;98512.09;;;11.61;48.60
59154;BME280;44935;48.944;9.418;2024-02-16T05:44:19;98510.99;;;10.99;48.17
59154;BME280;44935;48.944;9.418;2024-02-16T05:46:46;98516.20;;;12.55;46.86
59154;BME280;44935;48.944;9.418;2024-02-16T05:49:13;98517.83;;;12.94;45.31
59154;BME280;44935;48.944;9.418;2024-02-16T05:51:40;98520.78;;;12.92;44.75
59154;BME280;44935;48.944;9.418;2024-02-16T05:54:07;98522.19;;;13.57;43.98
59154;BME280;44935;48.944;9.418;2024-02-16T05:56:35;98525.07;;;13.34;43.75
59154;BME280;44935;48.944;9.418;2024-02-16T05:59:01;98523.04;;;13.26;44.01
59154;BME280;44935;48.944;9.418;2024-02-16T06:01:29;98527.95;;;13.37;44.01
59154;BME280;44935;48.944;9.418;2024-02-16T06:03:56;98526.25;;;13.26;44.16
59154;BME280;44935;48.944;9.418;2024-02-16T06:06:23;98527.18;;;13.63;43.45
59154;BME280;44935;48.944;9.418;2024-02-16T06:08:50;98527.81;;;12.11;45.61
59154;BME280;44935;48.944;9.418;2024-02-16T06:11:17;98526.99;;;13.47;43.57
59154;BME280;44935;48.944;9.418;2024-02-16T06:13:43;98528.13;;;13.42;43.56
59154;BME280;44935;48.944;9.418;2024-02-16T06:16:10;98529.90;;;13.78;42.68
59154;BME280;44935;48.944;9.418;2024-02-16T06:18:37;98535.36;;;13.81;42.62
59154;BME280;44935;48.944;9.418;2024-02-16T06:21:04;98540.50;;;13.77;42.73
59154;BME280;44935;48.944;9.418;2024-02-16T06:23:32;98544.32;;;12.89;43.73
59154;BME280;44935;48.944;9.418;2024-02-16T06:25:59;98547.41;;;13.01;44.31
59154;BME280;44935;48.944;9.418;2024-02-16T06:28:26;98552.09;;;13.15;43.96
59154;BME280;44935;48.944;9.418;2024-02-16T06:30:52;98559.51;;;13.29;43.81
59154;BME280;44935;48.944;9.418;2024-02-16T06:33:19;98563.75;;;13.58;43.21
59154;BME280;44935;48.944;9.418;2024-02-16T06:35:46;98561.85;;;12.96;43.82
59154;BME280;44935;48.944;9.418;2024-02-16T06:38:13;98562.91;;;13.32;43.34
59154;BME280;44935;48.944;9.418;2024-02-16T06:40:40;98563.97;;;13.09;43.43
59154;BME280;44935;48.944;9.418;2024-02-16T06:43:07;98570.91;;;13.45;42.97
59154;BME280;44935;48.944;9.418;2024-02-16T06:45:34;98571.27;;;13.43;43.22
59154;BME280;44935;48.944;9.418;2024-02-16T06:48:01;98575.14;;;13.28;43.10
59154;BME280;44935;48.944;9.418;2024-02-16T06:50:28;98576.08;;;13.63;42.54
59154;BME280;44935;48.944;9.418;2024-02-16T06:52:55;98575.32;;;13.46;42.86
59154;BME280;44935;48.944;9.418;2024-02-16T06:55:22;98577.49;;;13.52;42.88
59154;BME280;44935;48.944;9.418;2024-02-16T06:57:49;98577.98;;;12.21;44.64
59154;BME280;44935;48.944;9.418;2024-02-16T07:00:16;98583.47;;;13.21;43.76
59154;BME280;44935;48.944;9.418;2024-02-16T07:02:43;98586.40;;;13.26;43.92
59154;BME280;44935;48.944;9.418;2024-02-16T07:05:11;98586.10;;;13.25;43.72
59154;BME280;44935;48.944;9.418;2024-02-16T07:07:39;98584.67;;;13.07;44.21
59154;BME280;44935;48.944;9.418;2024-02-16T07:10:07;98589.60;;;12.48;45.33
59154;BME280;44935;48.944;9.418;2024-02-16T07:12:34;98592.62;;;13.27;44.08
59154;BME280;44935;48.944;9.418;2024-02-16T07:15:01;98598.14;;;13.52;43.75
59154;BME280;44935;48.944;9.418;2024-02-16T07:17:28;98596.99;;;13.29;44.02
59154;BME280;44935;48.944;9.418;2024-02-16T07:19:55;98595.72;;;13.16;44.00
59154;BME280;44935;48.944;9.418;2024-02-16T07:22:22;98594.26;;;9.38;51.60
59154;BME280;44935;48.944;9.418;2024-02-16T07:24:49;98587.49;;;11.64;47.91
59154;BME280;44935;48.944;9.418;2024-02-16T07:27:16;98592.49;;;12.86;45.86
59154;BME280;44935;48.944;9.418;2024-02-16T07:29:42;98595.91;;;11.14;47.79
59154;BME280;44935;48.944;9.418;2024-02-16T07:32:09;98601.21;;;9.96;50.50
59154;BME280;44935;48.944;9.418;2024-02-16T07:34:36;98604.19;;;12.00;46.68
59154;BME280;44935;48.944;9.418;2024-02-16T07:37:03;98611.85;;;12.87;45.49
59154;BME280;44935;48.944;9.418;2024-02-16T07:39:31;98608.65;;;13.43;44.50
59154;BME280;44935;48.944;9.418;2024-02-16T07:41:57;98610.43;;;13.45;44.55
59154;BME280;44935;48.944;9.418;2024-02-16T07:44:24;98609.35;;;13.58;43.90
59154;BME280;44935;48.944;9.418;2024-02-16T07:46:51;98612.40;;;13.45;44.49
59154;BME280;44935;48.944;9.418;2024-02-16T07:49:18;98616.49;;;13.54;44.14
59154;BME280;44935;48.944;9.418;2024-02-16T07:51:45;98615.72;;;13.27;44.23
59154;BME280;44935;48.944;9.418;2024-02-16T07:54:12;98615.00;;;13.31;44.72
59154;BME280;44935;48.944;9.418;2024-02-16T07:56:39;98619.58;;;13.11;45.07
59154;BME280;44935;48.944;9.418;2024-02-16T07:59:06;98622.96;;;12.76;45.71
59154;BME280;44935;48.944;9.418;2024-02-16T08:01:32;98622.95;;;12.72;45.66
59154;BME280;44935;48.944;9.418;2024-02-16T08:03:59;98624.88;;;12.95;45.41
59154;BME280;44935;48.944;9.418;2024-02-16T08:06:26;98625.21;;;13.41;44.80
59154;BME280;44935;48.944;9.418;2024-02-16T08:08:54;98623.62;;;13.23;44.64
59154;BME280;44935;48.944;9.418;2024-02-16T08:11:22;98628.23;;;13.23;44.65
59154;BME280;44935;48.944;9.418;2024-02-16T08:13:48;98629.09;;;13.18;45.04
59154;BME280;44935;48.944;9.418;2024-02-16T08:16:15;98626.68;;;13.10;45.23
59154;BME280;44935;48.944;9.418;2024-02-16T08:18:43;98626.75;;;12.81;45.44
59154;BME280;44935;48.944;9.418;2024-02-16T08:21:10;98626.70;;;13.27;44.60
59154;BME280;44935;48.944;9.418;2024-02-16T08:23:37;98625.14;;;13.65;44.79
59154;BME280;44935;48.944;9.418;2024-02-16T08:26:04;98626.26;;;13.67;44.42
59154;BME280;44935;48.944;9.418;2024-02-16T08:28:31;98624.43;;;13.97;43.81
59154;BME280;44935;48.944;9.418;2024-02-16T08:30:58;98627.57;;;13.80;43.98
59154;BME280;44935;48.944;9.418;2024-02-16T08:33:25;98622.33;;;13.15;45.50
59154;BME280;44935;48.944;9.418;2024-02-16T08:35:52;98629.10;;;13.33;45.63
59154;BME280;44935;48.944;9.418;2024-02-16T08:38:19;98631.65;;;14.15;44.28
59154;BME280;44935;48.944;9.418;2024-02-16T08:40:46;98634.05;;;14.10;43.87
59154;BME280;44935;48.944;9.418;2024-02-16T08:43:13;98631.41;;;14.25;44.23
59154;BME280;44935;48.944;9.418;2024-02-16T08:45:40;98630.60;;;11.50;47.66
59154;BME280;44935;48.944;9.418;2024-02-16T08:48:07;98627.63;;;11.94;47.63
59154;BME280;44935;48.944;9.418;2024-02-16T08:50:34;98627.29;;;11.68;47.64
59154;BME280;44935;48.944;9.418;2024-02-16T08:53:01;98629.99;;;10.14;50.99
59154;BME280;44935;48.944;9.418;2024-02-16T08:55:27;98630.60;;;10.21;51.45
59154;BME280;44935;48.944;9.418;2024-02-16T08:57:54;98628.84;;;9.85;51.85
59154;BME280;44935;48.944;9.418;2024-02-16T09:00:21;98633.57;;;10.70;51.42
59154;BME280;44935;48.944;9.418;2024-02-16T09:02:48;98628.82;;;12.11;48.23
59154;BME280;44935;48.944;9.418;2024-02-16T09:05:15;98631.24;;;11.41;48.63
59154;BME280;44935;48.944;9.418;2024-02-16T09:07:42;98626.75;;;12.74;46.42
59154;BME280;44935;48.944;9.418;2024-02-16T09:10:09;98628.16;;;11.99;48.34
59154;BME280;44935;48.944;9.418;2024-02-16T09:12:35;98630.81;;;11.38;49.44
59154;BME280;44935;48.944;9.418;2024-02-16T09:15:02;98630.39;;;11.77;48.33
59154;BME280;44935;48.944;9.418;2024-02-16T09:17:30;98631.51;;;12.96;47.12
59154;BME280;44935;48.944;9.418;2024-02-16T09:19:57;98635.72;;;11.74;48.26
59154;BME280;44935;48.944;9.418;2024-02-16T09:22:24;98643.00;;;11.50;48.12
59154;BME280;44935;48.944;9.418;2024-02-16T09:24:51;98641.05;;;12.93;45.38
59154;BME280;44935;48.944;9.418;2024-02-16T09:27:17;98642.92;;;13.00;45.81
59154;BME280;44935;48.944;9.418;2024-02-16T09:29:44;98645.27;;;12.11;45.87
59154;BME280;44935;48.944;9.418;2024-02-16T09:32:11;98643.97;;;13.14;45.16
59154;BME280;44935;48.944;9.418;2024-02-16T09:34:38;98649.96;;;13.94;43.95
59154;BME280;44935;48.944;9.418;2024-02-16T09:37:06;98649.00;;;14.29;43.01
59154;BME280;44935;48.944;9.418;2024-02-16T09:39:32;98648.25;;;14.86;42.07
59154;BME280;44935;48.944;9.418;2024-02-16T09:41:59;98653.53;;;15.39;40.84
59154;BME280;44935;48.944;9.418;2024-02-16T09:44:26;98649.37;;;15.13;41.18
59154;BME280;44935;48.944;9.418;2024-02-16T09:46:56;98650.97;;;14.09;43.61
59154;BME280;44935;48.944;9.418;2024-02-16T09:49:23;98652.19;;;13.49;43.57
59154;BME280;44935;48.944;9.418;2024-02-16T09:51:50;98655.20;;;13.21;44.60
59154;BME280;44935;48.944;9.418;2024-02-16T09:54:17;98653.49;;;13.75;42.98
59154;BME280;44935;48.944;9.418;2024-02-16T09:56:44;98658.46;;;14.57;42.25
59154;BME280;44935;48.944;9.418;2024-02-16T09:59:11;98664.02;;;13.83;42.89
59154;BME280;44935;48.944;9.418;2024-02-16T10:01:38;98666.30;;;14.01;41.14
59154;BME280;44935;48.944;9.418;2024-02-16T10:04:06;98671.58;;;15.53;39.52
59154;BME280;44935;48.944;9.418;2024-02-16T10:06:33;98676.16;;;15.85;39.33
59154;BME280;44935;48.944;9.418;2024-02-16T10:09:22;98680.10;;;16.24;39.04
59154;BME280;44935;48.944;9.418;2024-02-16T10:11:49;98685.63;;;16.41;38.02
59154;BME280;44935;48.944;9.418;2024-02-16T10:14:16;98687.22;;;16.41;38.46
59154;BME280;44935;48.944;9.418;2024-02-16T10:16:43;98688.85;;;16.35;38.21
59154;BME280;44935;48.944;9.418;2024-02-16T10:19:09;98691.92;;;16.43;39.58
59154;BME280;44935;48.944;9.418;2024-02-16T10:21:36;98695.37;;;15.84;39.65
59154;BME280;44935;48.944;9.418;2024-02-16T10:24:06;98697.44;;;15.71;40.07
59154;BME280;44935;48.944;9.418;2024-02-16T10:26:34;98695.81;;;14.35;43.31
59154;BME280;44935;48.944;9.418;2024-02-16T10:29:01;98701.30;;;15.64;40.52
59154;BME280;44935;48.944;9.418;2024-02-16T10:31:28;98700.38;;;13.84;43.56
59154;BME280;44935;48.944;9.418;2024-02-16T10:33:58;98703.34;;;12.97;45.85
59154;BME280;44935;48.944;9.418;2024-02-16T10:36:26;98701.19;;;13.76;43.52
59154;BME280;44935;48.944;9.418;2024-02-16T10:38:54;98696.68;;;15.39;41.47
59154;BME280;44935;48.944;9.418;2024-02-16T10:41:25;98702.78;;;16.34;38.73
59154;BME280;44935;48.944;9.418;2024-02-16T10:43:54;98710.28;;;16.45;38.14
59154;BME280;44935;48.944;9.418;2024-02-16T10:46:22;98707.48;;;16.87;38.38
59154;BME280;44935;48.944;9.418;2024-02-16T10:48:50;98710.28;;;16.96;38.29
59154;BME280;44935;48.944;9.418;2024-02-16T10:51:36;98714.72;;;16.03;39.36
59154;BME280;44935;48.944;9.418;2024-02-16T10:54:05;98716.82;;;16.21;39.96
59154;BME280;44935;48.944;9.418;2024-02-16T10:56:33;98712.52;;;17.54;37.81
59154;BME280;44935;48.944;9.418;2024-02-16T10:59:02;98712.50;;;17.16;37.97
59154;BME280;44935;48.944;9.418;2024-02-16T11:01:37;98720.60;;;17.07;39.37
59154;BME280;44935;48.944;9.418;2024-02-16T11:04:06;98718.90;;;17.29;38.55
59154;BME280;44935;48.944;9.418;2024-02-16T11:06:45;98717.44;;;17.40;36.57
59154;BME280;44935;48.944;9.418;2024-02-16T11:09:23;98720.22;;;16.85;38.09
59154;BME280;44935;48.944;9.418;2024-02-16T11:11:52;98713.11;;;16.90;36.94
59154;BME280;44935;48.944;9.418;2024-02-16T11:14:20;98714.21;;;17.02;37.19
59154;BME280;44935;48.944;9.418;2024-02-16T11:16:47;98713.23;;;17.58;35.71
59154;BME280;44935;48.944;9.418;2024-02-16T11:19:14;98715.29;;;17.97;35.79
59154;BME280;44935;48.944;9.418;2024-02-16T11:21:55;98716.99;;;16.72;37.00
59154;BME280;44935;48.944;9.418;2024-02-16T11:24:29;98717.53;;;16.48;36.63
59154;BME280;44935;48.944;9.418;2024-02-16T11:26:56;98718.24;;;16.63;37.12
59154;BME280;44935;48.944;9.418;2024-02-16T11:29:24;98714.35;;;17.59;36.35
59154;BME280;44935;48.944;9.418;2024-02-16T11:31:53;98713.76;;;17.73;34.79
59154;BME280;44935;48.944;9.418;2024-02-16T11:34:22;98714.53;;;18.00;34.19
59154;BME280;44935;48.944;9.418;2024-02-16T11:36:49;98707.36;;;17.36;35.21
59154;BME280;44935;48.944;9.418;2024-02-16T11:39:19;98715.25;;;16.58;36.35
59154;BME280;44935;48.944;9.418;2024-02-16T11:41:46;98714.99;;;16.07;36.71
59154;BME280;44935;48.944;9.418;2024-02-16T11:44:13;98714.18;;;16.42;36.41
59154;BME280;44935;48.944;9.418;2024-02-16T11:46:40;98708.51;;;17.55;34.54
59154;BME280;44935;48.944;9.418;2024-02-16T11:49:08;98707.47;;;17.88;34.80
59154;BME280;44935;48.944;9.418;2024-02-16T11:51:35;98707.92;;;17.69;34.81
59154;BME280;44935;48.944;9.418;2024-02-16T11:54:02;98704.27;;;17.92;34.41
59154;BME280;44935;48.944;9.418;2024-02-16T11:56:29;98703.39;;;17.15;35.42
59154;BME280;44935;48.944;9.418;2024-02-16T11:58:56;98706.10;;;18.17;33.99
59154;BME280;44935;48.944;9.418;2024-02-16T12:01:23;98704.15;;;17.68;35.05
59154;BME280;44935;48.944;9.418;2024-02-16T12:03:50;98699.19;;;18.00;34.69
59154;BME280;44935;48.944;9.418;2024-02-16T12:06:20;98698.09;;;18.04;34.10
59154;BME280;44935;48.944;9.418;2024-02-16T12:08:47;98696.85;;;18.13;34.54
59154;BME280;44935;48.944;9.418;2024-02-16T12:11:16;98698.96;;;18.17;34.75
59154;BME280;44935;48.944;9.418;2024-02-16T12:13:44;98695.73;;;18.31;34.76
59154;BME280;44935;48.944;9.418;2024-02-16T12:16:11;98699.53;;;17.85;35.04
59154;BME280;44935;48.944;9.418;2024-02-16T12:18:38;98694.79;;;18.00;34.88
59154;BME280;44935;48.944;9.418;2024-02-16T12:21:06;98696.75;;;18.19;35.31
59154;BME280;44935;48.944;9.418;2024-02-16T12:23:33;98699.62;;;17.73;35.65
59154;BME280;44935;48.944;9.418;2024-02-16T12:26:01;98697.91;;;17.88;35.76
59154;BME280;44935;48.944;9.418;2024-02-16T12:28:29;98699.09;;;17.90;36.22
59154;BME280;44935;48.944;9.418;2024-02-16T12:30:56;98702.11;;;17.67;35.18
59154;BME280;44935;48.944;9.418;2024-02-16T12:33:25;98704.46;;;17.78;36.71
59154;BME280;44935;48.944;9.418;2024-02-16T12:35:52;98706.18;;;17.35;36.97
59154;BME280;44935;48.944;9.418;2024-02-16T12:38:20;98708.86;;;17.02;37.44
59154;BME280;44935;48.944;9.418;2024-02-16T12:40:47;98708.94;;;16.10;39.08
59154;BME280;44935;48.944;9.418;2024-02-16T12:43:13;98707.14;;;16.04;39.46
59154;BME280;44935;48.944;9.418;2024-02-16T12:45:40;98708.58;;;15.86;39.80
59154;BME280;44935;48.944;9.418;2024-02-16T12:48:08;98709.80;;;16.55;39.59
59154;BME280;44935;48.944;9.418;2024-02-16T12:50:35;98709.42;;;16.48;38.97
59154;BME280;44935;48.944;9.418;2024-02-16T12:53:03;98707.80;;;16.82;38.95
59154;BME280;44935;48.944;9.418;2024-02-16T12:55:29;98712.48;;;16.75;38.84
59154;BME280;44935;48.944;9.418;2024-02-16T12:57:56;98712.07;;;16.41;39.08
59154;BME280;44935;48.944;9.418;2024-02-16T13:00:23;98712.63;;;16.17;40.38